Eleele, HI (96705)

9:51 AM HST on February 14, 2016 (GMT -1000)
Waimea, Hi 96796 | | Change Station
CLOSE
Current Station
Personal Weather Station
Location: Waimea, HI
Elevation: 60 ft
Nearby Weather Stations
Active Advisory: High Surf Advisory Active Notice: Record Report

Elev 60 ft 21.95 °N, 159.67 °W | Updated 7 seconds ago

Clear
Clear
76.6 °F
Feels Like 78 °F
N
5.0
Wind Variable Wind from WSW
Gusts 8.0 mph

Today
High -- | Low -- °F
--% Chance of Precip.
Yesterday
High -- | Low -- °F
Precip. -- in
Pressure 30.12 in
Visibility 10.0 miles
Clouds Clear
Heat Index 78 °F
Dew Point 67 °F
Humidity 73%
Rainfall 0.00 in
Snow Depth Not available.
7:10 AM 6:35 PM
Waxing Crescent, 44% visible
METAR PHBK 141856Z AUTO 34005KT 10SM CLR 26/18 A3011 RMK AO2 SLP198 T02610178
Pressure 30.12 in
Visibility 10.0 miles
Clouds Clear
Heat Index 78 °F
Dew Point 67 °F
Humidity 73%
Rainfall 0.00 in
Snow Depth Not available.
7:10 AM 6:35 PM
Waxing Crescent, 44% visible
METAR PHBK 141856Z AUTO 34005KT 10SM CLR 26/18 A3011 RMK AO2 SLP198 T02610178

10-Day Weather Forecast

Almanac

Astronomy

Feb. 14, 2016 Rise Set
Actual Time
Civil Twilight
Nautical Twilight
Astronomical Twilight
Moon
Length of Visible Light
Length of Day
Tomorrow will be .
, % of the Moon is Illuminated

Today's Extremes

State Highs State Lows

Community

WunderPhotos

Upload Photos

1,892,879 photos uploaded!

WunderBlog® & News

Nearby

Air Quality

  Air Quality AQ Index Pollutant
Not available.

Snow Depth

Station Depth Elevation

Earthquake Activity

City Distance Mag. Time & Date
Minimum magnitude displayed is 2.5.

Coastal Water Temperatures

Place Temperature

Stations

Nearby Weather Stations

Station Location Temp. Windchill Dew Point Humidity Wind Precip. Elev Updated Type
                   

Watches & Warnings

High Surf Advisory
Issued: 3:39 AM HST Feb. 14, 2016 – National Weather Service

... High surf advisory now in effect from 9 am this morning to
6 PM HST Monday...

* surf... north and west facing shores of Kauai and Niihau... and
north facing shores of Oahu and Molokai... building to 14 to 18
feet. West facing shores of Oahu and Molokai... building to 8 to
12 feet.

* Timing... from late this morning through Monday.

* Impacts... moderate... expect strong breaking waves... shore
break... and strong longshore and rip currents making swimming
difficult and dangerous.

Precautionary/preparedness actions... beachgoers... swimmers... and
surfers should heed all advice given by ocean safety officials
and exercise caution.